Time;durP1;ratioP1;P1;durP2;ratioP2;P2;SDS_P1;SDS_P2;PMS_P1;PMS_P2;Temp;Humidity;BMP_temperature;BMP_pressure;BME280_temperature;BME280_humidity;BME280_pressure;Samples;Min_cycle;Max_cycle;Signal;HPM_P1;HPM_P2
2022/05/06 00:00:58;;;;;;;32.15;5.25;;;;;;;8.41;100.00;101748.03;4884967;29;20032;-79
2022/05/06 00:03:23;;;;;;;27.33;5.00;;;;;;;8.34;100.00;101730.88;4917356;29;20024;-79
2022/05/06 00:05:49;;;;;;;30.13;4.90;;;;;;;8.43;100.00;101748.72;4883251;29;20381;-79
2022/05/06 00:08:16;;;;;;;29.88;4.25;;;;;;;8.23;100.00;101707.03;4900843;29;20070;-79
2022/05/06 00:10:41;;;;;;;37.25;5.68;;;;;;;8.55;100.00;101751.13;4901081;29;20340;-79
2022/05/06 00:13:06;;;;;;;30.00;4.57;;;;;;;8.47;100.00;101730.44;4898583;29;20043;-79
2022/05/06 00:15:32;;;;;;;33.95;5.07;;;;;;;8.59;100.00;101752.47;4880985;29;20119;-79
2022/05/06 00:17:57;;;;;;;27.10;5.13;;;;;;;8.61;100.00;101754.00;4897150;29;20095;-79
2022/05/06 00:20:24;;;;;;;23.33;4.30;;;;;;;8.64;100.00;101759.03;4880987;29;20024;-79
2022/05/06 00:22:49;;;;;;;28.92;4.95;;;;;;;8.48;100.00;101729.47;4865686;29;20040;-79
2022/05/06 00:25:14;;;;;;;25.85;5.20;;;;;;;8.69;100.00;101750.47;4865920;29;20367;-79
2022/05/06 00:27:43;;;;;;;27.73;4.75;;;;;;;8.70;100.00;101752.16;4881371;29;20037;-78
2022/05/06 00:30:09;;;;;;;20.02;4.30;;;;;;;8.72;100.00;101746.63;4896326;29;20036;-79
2022/05/06 00:32:35;;;;;;;24.45;5.20;;;;;;;8.65;100.00;101728.50;4881410;29;20044;-80
2022/05/06 00:35:00;;;;;;;26.85;4.68;;;;;;;8.77;100.00;101744.28;4879381;29;20124;-79
2022/05/06 00:37:26;;;;;;;23.33;4.35;;;;;;;8.73;100.00;101741.09;4896745;29;20025;-79
2022/05/06 00:39:51;;;;;;;28.98;5.55;;;;;;;8.84;100.00;101759.59;4866546;29;20111;-79
2022/05/06 00:42:18;;;;;;;23.88;4.72;;;;;;;8.75;100.00;101735.56;4874282;29;20043;-79
2022/05/06 00:44:44;;;;;;;26.10;4.25;;;;;;;8.77;100.00;101736.22;4878829;29;20399;-79
2022/05/06 00:47:09;;;;;;;24.67;4.45;;;;;;;8.79;100.00;101743.13;4876734;29;20037;-79
2022/05/06 00:49:36;;;;;;;28.38;4.88;;;;;;;8.85;100.00;101747.84;4884725;29;20028;-80
2022/05/06 00:52:04;;;;;;;26.80;4.60;;;;;;;8.84;100.00;101751.53;4919447;29;20056;-79
2022/05/06 00:54:31;;;;;;;25.17;4.88;;;;;;;8.85;100.00;101747.84;4903843;29;20032;-79
2022/05/06 00:56:58;;;;;;;21.15;4.43;;;;;;;8.85;100.00;101752.38;4921102;29;20044;-79
2022/05/06 00:59:23;;;;;;;23.02;4.40;;;;;;;8.62;100.00;101717.25;4899937;29;20092;-79
2022/05/06 01:01:48;;;;;;;30.67;4.82;;;;;;;8.67;100.00;101729.16;4869778;29;20451;-79
2022/05/06 01:04:16;;;;;;;27.63;4.57;;;;;;;8.86;100.00;101749.50;4901290;29;20059;-78
2022/05/06 01:06:42;;;;;;;23.45;4.60;;;;;;;8.81;100.00;101734.91;4899734;29;20465;-79
2022/05/06 01:09:14;;;;;;;23.35;4.40;;;;;;;8.63;100.00;101702.84;4908353;29;20056;-79
2022/05/06 01:11:39;;;;;;;19.85;4.13;;;;;;;8.98;100.00;101750.03;4921027;29;20028;-79
2022/05/06 01:14:05;;;;;;;23.98;4.15;;;;;;;9.02;100.00;101751.38;4919968;29;20465;-79
2022/05/06 01:16:34;;;;;;;22.38;3.97;;;;;;;8.97;100.00;101742.97;4914660;29;20032;-79
2022/05/06 01:19:03;;;;;;;22.83;4.05;;;;;;;9.06;100.00;101746.53;4920481;29;20039;-79
2022/05/06 01:21:34;;;;;;;22.90;3.92;;;;;;;9.07;100.00;101748.19;4916874;29;20028;-79
2022/05/06 01:24:00;;;;;;;18.90;3.92;;;;;;;9.14;100.00;101749.22;4915067;29;20458;-80
2022/05/06 01:26:59;;;;;;;25.92;4.72;;;;;;;9.16;100.00;101744.50;4920333;29;20032;-79
2022/05/06 01:29:27;;;;;;;20.48;3.65;;;;;;;9.00;100.00;101725.69;4919466;29;20180;-79
2022/05/06 01:31:55;;;;;;;23.60;3.92;;;;;;;9.19;100.00;101757.59;4917852;29;20050;-79
2022/05/06 01:34:23;;;;;;;20.48;3.90;;;;;;;9.07;100.00;101737.44;4918558;29;20029;-79
2022/05/06 01:36:51;;;;;;;26.40;3.85;;;;;;;8.69;100.00;101684.22;4902726;29;20196;-79
2022/05/06 01:39:20;;;;;;;19.85;4.95;;;;;;;9.05;100.00;101747.53;4917025;29;20032;-79
2022/05/06 01:41:51;;;;;;;31.95;4.63;;;;;;;9.01;100.00;101741.66;4919787;29;20035;-79
2022/05/06 01:44:19;;;;;;;19.23;3.83;;;;;;;9.13;100.00;101758.28;4918205;29;20096;-79
2022/05/06 01:46:44;;;;;;;21.40;3.53;;;;;;;9.06;100.00;101751.88;4918898;29;20146;-79
2022/05/06 01:49:11;;;;;;;17.15;3.22;;;;;;;9.15;100.00;101764.31;4918673;29;20456;-79
2022/05/06 01:51:38;;;;;;;20.35;3.75;;;;;;;9.14;100.00;101757.28;4916443;29;20036;-79
2022/05/06 01:54:04;;;;;;;20.40;4.15;;;;;;;9.00;100.00;101741.81;4919861;29;20027;-79
2022/05/06 01:56:31;;;;;;;16.88;3.20;;;;;;;9.13;100.00;101763.63;4919575;29;20051;-78
2022/05/06 01:58:56;;;;;;;21.67;3.65;;;;;;;9.17;100.00;101760.47;4928198;29;20043;-79
2022/05/06 02:01:23;;;;;;;14.98;3.63;;;;;;;9.16;100.00;101768.69;4900662;29;20042;-79
2022/05/06 02:06:32;;;;;;;17.60;3.20;;;;;;;9.14;100.00;101768.88;4917115;29;20039;-79
2022/05/06 02:08:58;;;;;;;17.15;3.50;;;;;;;9.12;100.00;101773.53;4919289;29;20055;-79
2022/05/06 02:11:25;;;;;;;21.10;3.55;;;;;;;9.01;100.00;101756.94;4917365;29;20032;-79
2022/05/06 02:13:50;;;;;;;16.50;3.33;;;;;;;9.09;100.00;101775.72;4919003;29;20091;-79
2022/05/06 02:16:16;;;;;;;20.42;3.45;;;;;;;9.09;100.00;101773.03;4917703;29;20043;-79
2022/05/06 02:18:42;;;;;;;24.42;3.58;;;;;;;9.09;100.00;101781.09;4918428;29;20036;-79
2022/05/06 02:21:07;;;;;;;14.13;3.40;;;;;;;9.07;100.00;101778.59;4917288;29;20052;-79
2022/05/06 02:23:33;;;;;;;24.50;3.45;;;;;;;8.93;100.00;101755.06;4904506;29;20062;-79
2022/05/06 02:25:58;;;;;;;16.27;3.10;;;;;;;9.07;100.00;101775.91;4917206;29;20067;-78
2022/05/06 02:28:24;;;;;;;19.60;3.13;;;;;;;9.05;100.00;101777.91;4918687;29;20454;-79
2022/05/06 02:33:36;;;;;;;13.90;2.80;;;;;;;8.98;100.00;101782.25;4918996;29;20047;-79
2022/05/06 02:36:02;;;;;;;16.77;3.00;;;;;;;9.01;100.00;101776.56;4917975;29;20036;-79
2022/05/06 02:38:29;;;;;;;12.82;2.72;;;;;;;9.03;100.00;101779.06;4919560;29;20028;-79
2022/05/06 02:40:55;;;;;;;13.55;2.83;;;;;;;9.00;100.00;101774.84;4916392;29;20064;-79
2022/05/06 02:43:20;;;;;;;14.30;3.03;;;;;;;8.92;100.00;101756.91;4917588;29;20118;-79
2022/05/06 02:45:46;;;;;;;15.05;3.20;;;;;;;9.06;100.00;101776.06;4916892;29;20115;-79
2022/05/06 02:48:13;;;;;;;13.25;2.83;;;;;;;9.01;100.00;101767.66;4916236;29;20080;-79
2022/05/06 02:50:41;;;;;;;15.32;3.47;;;;;;;9.04;100.00;101786.97;4916867;29;20537;-79
2022/05/06 02:53:06;;;;;;;18.58;3.35;;;;;;;9.00;100.00;101774.03;4916860;29;20046;-79
2022/05/06 02:55:32;;;;;;;16.75;3.20;;;;;;;9.02;100.00;101780.06;4917582;29;20040;-79
2022/05/06 02:57:57;;;;;;;17.05;3.03;;;;;;;8.98;100.00;101781.41;4917970;29;20506;-79
2022/05/06 03:00:23;;;;;;;22.92;3.67;;;;;;;8.97;100.00;101785.94;4917401;29;20046;-79
2022/05/06 03:02:50;;;;;;;17.42;3.17;;;;;;;8.93;100.00;101779.22;4902028;29;20076;-79
2022/05/06 03:05:16;;;;;;;14.90;3.10;;;;;;;8.90;100.00;101785.75;4916557;29;20091;-79
2022/05/06 03:07:41;;;;;;;18.27;2.90;;;;;;;8.87;100.00;101782.53;4901480;29;20040;-79
2022/05/06 03:10:09;;;;;;;18.10;3.50;;;;;;;8.86;100.00;101787.09;4915610;29;20040;-79
2022/05/06 03:12:34;;;;;;;13.45;2.95;;;;;;;8.85;100.00;101790.78;4927154;29;20024;-79
2022/05/06 03:15:03;;;;;;;15.98;3.40;;;;;;;8.79;100.00;101787.91;4923977;29;20032;-79
2022/05/06 03:17:30;;;;;;;16.95;3.08;;;;;;;8.75;100.00;101778.50;4919272;29;20134;-79
2022/05/06 03:19:55;;;;;;;18.02;2.90;;;;;;;8.76;100.00;101767.59;4917725;29;20115;-79
2022/05/06 03:22:22;;;;;;;14.52;2.72;;;;;;;8.89;100.00;101793.97;4916015;29;20116;-79
2022/05/06 03:24:47;;;;;;;12.80;2.97;;;;;;;8.92;100.00;101791.78;4901317;29;20047;-79
2022/05/06 03:29:57;;;;;;;17.73;3.40;;;;;;;7.98;100.00;101637.25;4917124;29;20068;-79
2022/05/06 03:32:23;;;;;;;13.23;3.15;;;;;;;9.03;100.00;101789.81;4916312;29;20031;-79
2022/05/06 03:34:50;;;;;;;18.90;2.95;;;;;;;9.05;100.00;101790.50;4915226;29;20294;-79
2022/05/06 03:37:15;;;;;;;18.77;3.20;;;;;;;9.03;100.00;101776.38;4901197;29;20024;-79
2022/05/06 03:39:40;;;;;;;17.50;3.17;;;;;;;9.07;100.00;101783.09;4915641;29;20366;-79
2022/05/06 03:42:06;;;;;;;15.52;3.33;;;;;;;9.50;100.00;101791.88;4916668;29;20366;-78
2022/05/06 03:44:31;;;;;;;14.63;2.97;;;;;;;9.77;100.00;101788.84;4900704;29;20500;-79
2022/05/06 03:46:57;;;;;;;18.70;3.20;;;;;;;9.87;100.00;101794.88;4915322;29;20031;-79
2022/05/06 03:49:22;;;;;;;18.80;3.60;;;;;;;9.63;100.00;101733.06;4900855;29;20478;-79
2022/05/06 03:51:47;;;;;;;20.63;3.55;;;;;;;10.67;100.00;101806.63;4915703;29;20039;-79
2022/05/06 03:54:13;;;;;;;12.45;2.78;;;;;;;10.82;100.00;101751.84;4917144;29;20099;-79
2022/05/06 03:56:38;;;;;;;14.20;2.92;;;;;;;11.62;100.00;101801.78;4915588;29;20042;-79
2022/05/06 03:59:04;;;;;;;14.48;2.80;;;;;;;11.51;100.00;101722.19;4916913;29;20091;-79
2022/05/06 04:01:29;;;;;;;21.73;3.42;;;;;;;12.15;100.00;101801.81;4899001;29;20378;-79
2022/05/06 04:03:54;;;;;;;18.63;2.80;;;;;;;12.53;100.00;101807.13;4916348;29;20028;-80
2022/05/06 04:06:20;;;;;;;13.73;2.30;;;;;;;12.65;100.00;101786.72;4917633;29;20042;-79
2022/05/06 04:08:45;;;;;;;17.48;2.63;;;;;;;13.29;100.00;101811.16;4916056;29;20554;-79
2022/05/06 04:11:12;;;;;;;14.10;2.90;;;;;;;13.56;100.00;101820.38;4868769;29;20051;-79
2022/05/06 04:13:38;;;;;;;16.00;2.78;;;;;;;13.62;100.00;101822.28;4904777;29;20033;-79
2022/05/06 04:16:04;;;;;;;14.93;3.15;;;;;;;13.49;100.00;101789.72;4915189;29;20050;-79
2022/05/06 04:18:31;;;;;;;12.20;2.88;;;;;;;13.38;100.00;101803.78;4915361;29;20755;-79
2022/05/06 04:23:41;;;;;;;13.63;2.70;;;;;;;14.03;100.00;101807.22;4913847;29;20042;-78
2022/05/06 04:26:13;;;;;;;17.92;2.90;;;;;;;14.28;100.00;101819.25;4897039;29;20036;-79
2022/05/06 04:28:39;;;;;;;16.17;2.95;;;;;;;14.35;100.00;101822.00;4915052;29;20486;-78
2022/05/06 04:31:05;;;;;;;19.25;3.00;;;;;;;14.49;100.00;101822.91;4915972;29;20039;-79
2022/05/06 04:33:30;;;;;;;16.77;2.60;;;;;;;14.68;100.00;101815.97;4898490;29;20028;-79
2022/05/06 04:35:57;;;;;;;14.27;2.58;;;;;;;14.87;100.00;101822.50;4915353;29;20020;-78
2022/05/06 04:38:23;;;;;;;12.07;2.30;;;;;;;15.04;100.00;101821.94;4912770;29;20032;-78
2022/05/06 04:40:50;;;;;;;11.48;2.55;;;;;;;14.90;100.00;101828.34;4914546;29;20036;-79
2022/05/06 04:43:18;;;;;;;13.23;2.38;;;;;;;14.93;100.00;101829.81;4914650;29;20028;-78
2022/05/06 04:45:44;;;;;;;12.75;2.65;;;;;;;14.92;100.00;101834.41;4914399;29;20047;-78
2022/05/06 04:48:11;;;;;;;17.67;2.55;;;;;;;14.97;100.00;101831.94;4912747;29;20043;-79
2022/05/06 04:50:41;;;;;;;14.65;2.92;;;;;;;15.10;100.00;101832.97;4915679;29;20055;-79
2022/05/06 04:53:08;;;;;;;17.73;2.80;;;;;;;15.24;100.00;101826.59;4912326;29;20035;-79
2022/05/06 04:55:34;;;;;;;12.30;2.33;;;;;;;15.34;100.00;101837.88;4908723;29;20437;-78
2022/05/06 04:57:59;;;;;;;12.18;2.60;;;;;;;15.15;100.00;101838.66;4902998;29;20037;-79
2022/05/06 05:00:25;;;;;;;13.85;2.42;;;;;;;15.36;100.00;101833.06;4915345;29;20119;-79
2022/05/06 05:02:50;;;;;;;12.70;2.35;;;;;;;14.96;100.00;101838.38;4909224;29;20036;-78
2022/05/06 05:05:16;;;;;;;14.63;2.30;;;;;;;14.97;100.00;101831.94;4911193;29;20114;-79
2022/05/06 05:07:42;;;;;;;10.77;2.33;;;;;;;15.17;100.00;101842.00;4915577;29;20032;-79
2022/05/06 05:10:08;;;;;;;16.88;2.55;;;;;;;14.95;100.00;101844.84;4909049;29;20170;-79
2022/05/06 05:12:34;;;;;;;14.38;2.80;;;;;;;14.98;100.00;101836.28;4913898;29;20034;-79
2022/05/06 05:15:02;;;;;;;13.25;2.22;;;;;;;14.95;100.00;101817.72;4913562;29;20143;-79
2022/05/06 05:17:29;;;;;;;8.13;1.92;;;;;;;15.20;100.00;101849.72;4913356;29;20028;-79
2022/05/06 05:19:55;;;;;;;12.23;2.50;;;;;;;15.16;100.00;101849.28;4914782;29;20028;-78
2022/05/06 05:22:20;;;;;;;13.57;2.00;;;;;;;14.65;100.00;101776.56;4917331;29;20087;-79
2022/05/06 05:24:48;;;;;;;17.10;2.67;;;;;;;14.77;100.00;101837.25;4916532;29;20036;-79
2022/05/06 05:27:14;;;;;;;16.63;2.40;;;;;;;13.85;100.00;101859.13;4919780;29;20442;-80
2022/05/06 05:29:40;;;;;;;14.00;2.28;;;;;;;13.30;100.00;101858.78;4919013;29;20040;-79
2022/05/06 05:32:06;;;;;;;11.52;2.30;;;;;;;12.93;100.00;101847.09;4914911;29;20037;-80
2022/05/06 05:34:31;;;;;;;14.45;2.75;;;;;;;12.93;100.00;101866.00;4915783;29;20063;-79
2022/05/06 05:36:57;;;;;;;11.15;2.42;;;;;;;12.89;100.00;101864.72;4914477;29;20447;-80
2022/05/06 05:39:22;;;;;;;11.25;2.10;;;;;;;12.99;100.00;101867.13;4914406;29;20027;-79
2022/05/06 05:41:47;;;;;;;8.52;1.80;;;;;;;12.91;100.00;101868.09;4898480;29;20039;-79
2022/05/06 05:49:41;;;;;;;12.95;2.20;;;;;;;12.85;100.00;101857.19;4915825;29;20047;-80
2022/05/06 05:52:06;;;;;;;10.63;2.03;;;;;;;12.91;100.00;101861.81;4916956;29;20040;-80
2022/05/06 05:54:32;;;;;;;15.68;2.70;;;;;;;13.06;100.00;101869.91;4917110;29;20027;-79
2022/05/06 05:56:57;;;;;;;13.68;2.70;;;;;;;13.04;100.00;101870.09;4915620;29;20063;-80
2022/05/06 05:59:23;;;;;;;16.23;2.75;;;;;;;12.95;100.00;101876.66;4896148;29;20107;-80
2022/05/06 06:01:49;;;;;;;13.75;2.63;;;;;;;12.89;100.00;101869.28;4884529;29;20036;-80
2022/05/06 06:04:15;;;;;;;13.45;2.45;;;;;;;12.79;100.00;101858.78;4912646;29;20044;-79
2022/05/06 06:06:41;;;;;;;10.40;2.40;;;;;;;13.03;100.00;101881.94;4912179;29;20151;-80
2022/05/06 06:09:08;;;;;;;17.95;2.95;;;;;;;12.70;100.00;101851.78;4910072;29;20139;-80
2022/05/06 06:11:33;;;;;;;16.80;2.33;;;;;;;12.94;100.00;101892.00;4915831;29;20040;-80
2022/05/06 06:13:58;;;;;;;13.55;2.50;;;;;;;13.18;100.00;101890.03;4917471;29;20107;-80
2022/05/06 06:16:24;;;;;;;11.82;2.25;;;;;;;13.17;100.00;101886.47;4902211;29;20036;-80
2022/05/06 06:18:49;;;;;;;11.40;2.33;;;;;;;13.13;100.00;101887.03;4918425;29;20127;-80
2022/05/06 06:21:14;;;;;;;13.85;2.35;;;;;;;13.13;100.00;101892.44;4915186;29;20028;-79
2022/05/06 06:23:40;;;;;;;11.63;2.38;;;;;;;13.08;100.00;101878.69;4917895;29;20036;-80
2022/05/06 06:26:05;;;;;;;9.80;2.10;;;;;;;12.98;100.00;101859.19;4914991;29;20092;-81
2022/05/06 06:28:31;;;;;;;9.65;1.88;;;;;;;13.20;100.00;101887.13;4915442;29;20028;-80
2022/05/06 06:30:56;;;;;;;15.93;2.58;;;;;;;13.24;100.00;101888.41;4917771;29;20059;-79
2022/05/06 06:33:21;;;;;;;13.23;2.30;;;;;;;13.01;100.00;101861.53;4922592;29;20107;-80
2022/05/06 06:35:47;;;;;;;11.05;1.85;;;;;;;12.97;100.00;101874.56;4912531;29;20048;-80
2022/05/06 06:38:12;;;;;;;10.27;1.92;;;;;;;13.08;100.00;101894.91;4907836;29;20114;-80
2022/05/06 06:40:37;;;;;;;12.20;2.13;;;;;;;13.20;100.00;101900.63;4905115;29;20056;-80
2022/05/06 06:43:04;;;;;;;9.75;1.80;;;;;;;13.27;100.00;101898.88;4913001;29;20032;-80
2022/05/06 06:45:31;;;;;;;8.07;1.83;;;;;;;13.22;100.00;101888.59;4915256;29;20115;-80
2022/05/06 06:47:58;;;;;;;8.65;1.55;;;;;;;13.08;100.00;101884.09;4915703;29;20374;-80
2022/05/06 06:50:25;;;;;;;9.75;1.70;;;;;;;13.02;100.00;101907.28;4910177;29;20025;-80
2022/05/06 06:52:51;;;;;;;10.98;1.60;;;;;;;13.10;100.00;101904.47;4900403;29;20123;-80
2022/05/06 06:55:17;;;;;;;11.25;2.13;;;;;;;13.17;100.00;101909.94;4915913;29;20119;-80
2022/05/06 06:57:42;;;;;;;11.82;2.00;;;;;;;12.81;100.00;101864.81;4915002;29;20473;-80
2022/05/06 07:00:09;;;;;;;13.02;1.80;;;;;;;13.03;100.00;101891.91;4915317;29;20052;-80
2022/05/06 07:02:36;;;;;;;6.53;1.55;;;;;;;12.99;100.00;101906.81;4899213;29;20067;-80
2022/05/06 07:05:03;;;;;;;9.30;1.75;;;;;;;12.91;100.00;101908.59;4916885;29;20040;-80
2022/05/06 07:12:56;;;;;;;15.37;2.20;;;;;;;12.91;100.00;101897.81;4896209;29;20075;-80
2022/05/06 07:15:23;;;;;;;12.55;2.10;;;;;;;13.02;100.00;101904.59;4880427;29;20115;-80
2022/05/06 07:17:48;;;;;;;6.53;1.80;;;;;;;13.24;100.00;101920.84;4881743;29;20025;-79
2022/05/06 07:20:14;;;;;;;10.45;1.80;;;;;;;13.18;100.00;101922.47;4881569;29;20036;-80
2022/05/06 07:22:39;;;;;;;10.73;1.90;;;;;;;13.19;100.00;101926.00;4881463;29;20091;-80
2022/05/06 07:25:05;;;;;;;5.60;1.38;;;;;;;13.05;100.00;101928.53;4864850;29;20039;-80
2022/05/06 07:27:34;;;;;;;6.63;1.42;;;;;;;13.13;100.00;101931.09;4884570;29;20478;-79
2022/05/06 07:29:59;;;;;;;10.20;1.77;;;;;;;12.61;100.00;101823.22;4892899;29;20036;-80
2022/05/06 07:32:25;;;;;;;7.38;1.45;;;;;;;13.36;100.00;101932.88;4905187;29;20621;-78
2022/05/06 07:34:50;;;;;;;11.15;1.83;;;;;;;13.17;100.00;101899.97;4885428;29;20371;-79
2022/05/06 07:37:16;;;;;;;8.00;1.48;;;;;;;13.33;100.00;101933.25;4868152;29;20067;-80
2022/05/06 07:39:41;;;;;;;6.45;1.30;;;;;;;13.24;100.00;101916.31;4874840;29;20798;-80
2022/05/06 07:42:08;;;;;;;11.52;1.88;;;;;;;13.28;100.00;101919.50;4908043;29;20081;-79
2022/05/06 07:44:33;;;;;;;7.45;1.48;;;;;;;13.49;100.00;101937.59;4881564;29;20028;-80
2022/05/06 07:46:59;;;;;;;8.10;1.40;;;;;;;13.37;100.00;101938.09;4897157;29;20478;-79
2022/05/06 07:49:24;;;;;;;7.35;1.70;;;;;;;13.13;100.00;101906.78;4879042;29;20370;-80
2022/05/06 07:51:50;;;;;;;8.40;1.75;;;;;;;13.22;100.00;101934.56;4879708;29;20041;-79
2022/05/06 07:54:16;;;;;;;6.35;1.75;;;;;;;13.40;100.00;101942.28;4864269;29;20051;-79
2022/05/06 07:56:41;;;;;;;9.38;2.10;;;;;;;13.44;100.00;101945.44;4897342;29;20123;-80
2022/05/06 07:59:06;;;;;;;6.60;1.70;;;;;;;12.80;100.00;101903.66;4897989;29;20036;-80
2022/05/06 08:04:36;;;;;;;8.60;2.00;;;;;;;13.00;100.00;101951.72;4878896;29;20101;-79
2022/05/06 08:07:06;;;;;;;5.80;1.83;;;;;;;13.11;100.00;101948.53;4896538;29;20032;-80
2022/05/06 08:09:32;;;;;;;12.45;2.00;;;;;;;13.40;100.00;101942.28;4913325;29;20124;-79
2022/05/06 08:11:58;;;;;;;7.75;2.58;;;;;;;13.42;100.00;101944.81;4917487;29;20442;-80
2022/05/06 08:14:23;;;;;;;8.15;1.67;;;;;;;13.39;100.00;101929.81;4914433;29;20024;-79
2022/05/06 08:16:50;;;;;;;7.38;2.10;;;;;;;13.69;100.00;101951.34;4914653;29;20753;-79
2022/05/06 08:19:16;;;;;;;7.60;2.10;;;;;;;13.85;100.00;101956.50;4915324;29;20035;-79
2022/05/06 08:21:42;;;;;;;6.68;2.03;;;;;;;13.83;100.00;101951.28;4913491;29;20083;-80
2022/05/06 08:24:08;;;;;;;8.40;2.28;;;;;;;13.64;100.00;101930.28;4915109;29;20028;-79
2022/05/06 08:26:33;;;;;;;9.73;2.40;;;;;;;13.78;100.00;101961.84;4915146;29;20555;-79
2022/05/06 08:28:59;;;;;;;10.38;2.30;;;;;;;13.66;100.00;101957.13;4916115;29;20036;-79
2022/05/06 08:31:24;;;;;;;7.07;2.47;;;;;;;13.61;100.00;101958.56;4915684;29;20131;-80
2022/05/06 08:33:49;;;;;;;7.50;2.38;;;;;;;13.66;100.00;101965.25;4916018;29;20047;-80
2022/05/06 08:36:15;;;;;;;7.10;1.95;;;;;;;13.57;100.00;101961.81;4921064;29;20036;-79
2022/05/06 08:38:41;;;;;;;7.90;2.30;;;;;;;13.42;100.00;101936.69;4909560;29;20123;-79
2022/05/06 08:41:10;;;;;;;9.98;2.58;;;;;;;13.11;100.00;101906.16;4897505;29;20088;-80
2022/05/06 08:43:35;;;;;;;9.05;2.78;;;;;;;13.29;100.00;101943.63;4913452;29;20111;-79
2022/05/06 08:51:39;;;;;;;8.07;2.45;;;;;;;13.33;100.00;101928.69;4906145;29;20103;-80
2022/05/06 08:54:05;;;;;;;6.10;2.00;;;;;;;13.57;100.00;101959.94;4915715;29;20036;-79
2022/05/06 08:56:32;;;;;;;5.07;2.05;;;;;;;13.71;100.00;101960.97;4918062;29;20418;-80
2022/05/06 08:58:59;;;;;;;7.82;2.55;;;;;;;13.67;100.00;101964.22;4904302;29;20047;-79
2022/05/06 09:01:25;;;;;;;6.57;2.42;;;;;;;13.63;100.00;101963.75;4915733;29;20036;-80
2022/05/06 09:03:51;;;;;;;7.63;2.80;;;;;;;13.53;100.00;101964.06;4921271;29;20039;-79
2022/05/06 09:06:25;;;;;;;8.00;2.65;;;;;;;13.48;100.00;101962.97;4919130;29;20039;-79
2022/05/06 09:08:52;;;;;;;9.63;2.72;;;;;;;12.87;100.00;101899.19;4919790;29;20044;-79
2022/05/06 09:12:40;;;;;;;8.18;2.70;;;;;;;13.51;100.00;101970.69;4918777;29;20052;-79
2022/05/06 09:14:05;;;;;;;7.05;2.50;;;;;;;13.60;100.00;101962.28;4901048;29;20044;-78
2022/05/06 09:16:46;;;;;;;6.63;2.90;;;;;;;13.74;100.00;101966.00;4900481;29;20043;-79
2022/05/06 09:19:14;;;;;;;8.50;2.92;;;;;;;13.82;100.00;101968.56;4918060;29;20036;-79
2022/05/06 09:21:41;;;;;;;7.75;2.88;;;;;;;13.74;100.00;101959.72;4918396;29;20459;-79
2022/05/06 09:24:18;;;;;;;6.53;2.70;;;;;;;13.72;100.00;101961.78;4920297;29;20028;-80
2022/05/06 09:27:00;;;;;;;7.72;2.83;;;;;;;13.86;100.00;101958.19;4920313;29;20103;-79
2022/05/06 09:29:29;;;;;;;8.02;2.50;;;;;;;14.04;100.00;101963.16;4900980;29;20498;-79
2022/05/06 09:31:56;;;;;;;6.25;2.75;;;;;;;14.06;100.00;101963.78;4914883;29;20758;-79
2022/05/06 09:34:28;;;;;;;8.85;2.83;;;;;;;14.09;100.00;101966.13;4918819;29;20036;-79
2022/05/06 09:36:53;;;;;;;6.28;2.65;;;;;;;14.09;100.00;101969.66;4918274;29;20024;-79
2022/05/06 09:39:21;;;;;;;7.20;2.60;;;;;;;14.14;100.00;101960.09;4919279;29;20050;-80
2022/05/06 09:41:48;;;;;;;8.88;3.05;;;;;;;14.41;100.00;101961.19;4918583;29;20016;-80
2022/05/06 09:44:14;;;;;;;7.65;2.78;;;;;;;14.57;100.00;101960.94;4920030;29;20067;-81
2022/05/06 09:46:41;;;;;;;10.82;3.17;;;;;;;14.74;100.00;101940.63;4929716;29;20035;-79
2022/05/06 09:49:06;;;;;;;6.57;2.58;;;;;;;14.97;100.00;101963.91;4924572;29;20096;-79
2022/05/06 09:51:33;;;;;;;5.82;2.30;;;;;;;14.95;100.00;101955.94;4917555;29;20043;-79
2022/05/06 09:54:00;;;;;;;5.78;1.95;;;;;;;15.16;100.00;101954.19;4918433;29;20040;-79
2022/05/06 09:56:26;;;;;;;8.10;2.30;;;;;;;15.16;100.00;101946.88;4917412;29;20036;-79
2022/05/06 09:58:52;;;;;;;7.85;2.47;;;;;;;15.39;100.00;101959.28;4919085;29;20091;-79
2022/05/06 10:01:19;;;;;;;8.23;3.17;;;;;;;15.37;100.00;101948.66;4916475;29;20366;-79
2022/05/06 10:03:45;;;;;;;6.40;2.70;;;;;;;15.14;100.00;101945.44;4919064;29;20047;-80
2022/05/06 10:06:10;;;;;;;7.00;2.92;;;;;;;15.12;100.00;101945.63;4916534;29;20040;-79
2022/05/06 10:08:42;;;;;;;5.90;2.63;;;;;;;15.44;100.00;101971.19;4917028;29;20036;-80
2022/05/06 10:11:12;;;;;;;9.52;2.97;;;;;;;15.51;100.00;101947.66;4918585;29;20095;-79
2022/05/06 10:13:43;;;;;;;6.07;3.28;;;;;;;15.13;100.00;101922.03;4916971;29;20027;-79
2022/05/06 10:16:10;;;;;;;8.90;3.40;;;;;;;15.35;100.00;101964.28;4915556;29;20036;-80
2022/05/06 10:18:37;;;;;;;9.52;4.05;;;;;;;15.18;100.00;101962.97;4902729;29;20514;-79
2022/05/06 10:21:10;;;;;;;9.70;4.00;;;;;;;15.10;100.00;101949.56;4918021;29;20115;-79
2022/05/06 10:23:45;;;;;;;6.95;4.00;;;;;;;15.13;100.00;101962.72;4918867;29;20031;-79
2022/05/06 10:26:51;;;;;;;10.00;3.63;;;;;;;15.06;100.00;101959.97;4916750;29;20131;-80
2022/05/06 10:32:53;;;;;;;14.07;4.28;;;;;;;14.94;100.00;101964.28;4919439;29;20108;-79
2022/05/06 10:35:35;;;;;;;10.57;4.35;;;;;;;14.78;100.00;101941.88;4918596;29;20020;-79
2022/05/06 10:38:15;;;;;;;9.50;3.75;;;;;;;14.82;100.00;101952.34;4916721;29;20032;-79
2022/05/06 10:40:48;;;;;;;8.75;3.53;;;;;;;14.81;100.00;101956.91;4917496;29;20477;-79
2022/05/06 10:43:39;;;;;;;8.10;3.95;;;;;;;14.89;100.00;101962.16;4917152;29;20122;-79
2022/05/06 10:46:05;;;;;;;8.70;3.90;;;;;;;14.94;100.00;101951.56;4915531;29;20024;-79
2022/05/06 10:48:31;;;;;;;7.75;4.60;;;;;;;15.05;100.00;101961.00;4916653;29;20119;-79
2022/05/06 10:51:24;;;;;;;10.93;4.80;;;;;;;14.93;100.00;101957.19;4918098;29;20035;-79
2022/05/06 10:53:49;;;;;;;13.15;5.22;;;;;;;14.92;100.00;101959.06;4936552;29;20672;-79
2022/05/06 10:56:14;;;;;;;9.73;5.32;;;;;;;14.88;100.00;101956.97;4919495;29;20047;-79
2022/05/06 10:58:41;;;;;;;11.23;5.10;;;;;;;14.66;100.00;101942.63;4917564;29;20055;-80
2022/05/06 11:01:06;;;;;;;10.55;5.03;;;;;;;14.64;100.00;101952.84;4915872;29;20362;-79
2022/05/06 11:03:38;;;;;;;9.20;5.13;;;;;;;14.55;100.00;101953.00;4916915;29;20036;-79
2022/05/06 11:06:07;;;;;;;11.68;5.82;;;;;;;14.43;100.00;101951.81;4916544;29;20103;-80
2022/05/06 11:08:33;;;;;;;10.85;6.00;;;;;;;14.14;100.00;101928.47;4930404;29;20016;-79
2022/05/06 11:11:06;;;;;;;9.65;5.82;;;;;;;14.39;100.00;101964.09;4928733;29;20032;-80
2022/05/06 11:13:31;;;;;;;13.55;6.13;;;;;;;14.46;100.00;101964.97;4902470;29;20032;-79
2022/05/06 11:16:05;;;;;;;10.73;6.50;;;;;;;14.25;100.00;101914.41;4918161;29;20111;-79
2022/05/06 11:18:41;;;;;;;11.30;7.10;;;;;;;14.48;100.00;101918.75;4904061;29;20081;-79
2022/05/06 11:21:19;;;;;;;11.85;6.90;;;;;;;14.51;100.00;101902.97;4908068;29;20032;-79
2022/05/06 11:23:44;;;;;;;10.77;6.68;;;;;;;15.11;100.00;101962.09;4916705;29;20044;-79
2022/05/06 11:26:09;;;;;;;12.50;7.75;;;;;;;15.16;100.00;101959.59;4916526;29;20088;-79
2022/05/06 11:28:37;;;;;;;13.25;7.43;;;;;;;14.52;100.00;101822.53;4899193;29;20078;-79
2022/05/06 11:31:03;;;;;;;14.13;7.30;;;;;;;15.35;100.00;101958.84;4916778;29;20413;-79
2022/05/06 11:33:31;;;;;;;11.68;6.95;;;;;;;15.36;100.00;101955.09;4917347;29;20123;-79
2022/05/06 11:36:01;;;;;;;11.55;7.20;;;;;;;15.14;100.00;101956.28;4916234;29;20030;-78
2022/05/06 11:38:38;;;;;;;10.20;6.97;;;;;;;15.08;100.00;101963.31;4917764;29;20533;-80
2022/05/06 11:41:11;;;;;;;15.00;7.70;;;;;;;14.75;100.00;101914.34;4906797;29;20024;-80
2022/05/06 11:43:37;;;;;;;13.00;7.82;;;;;;;15.00;100.00;101956.19;4898094;29;20067;-79
2022/05/06 11:48:48;;;;;;;;;;;;;;;14.74;100.00;101946.03;4917461;29;20374;-79
2022/05/06 11:51:21;;;;;;;11.30;7.38;;;;;;;14.60;100.00;101916.34;4916564;29;19915;-79